sensor_id;sensor_type;location;lat;lon;timestamp;P1;durP1;ratioP1;P2;durP2;ratioP2
27796;SDS011;15177;50.844;4.412;2023-08-06T00:00:41;4.63;;;2.72;;
27796;SDS011;15177;50.844;4.412;2023-08-06T00:03:06;5.60;;;2.67;;
27796;SDS011;15177;50.844;4.412;2023-08-06T00:05:33;4.75;;;2.88;;
27796;SDS011;15177;50.844;4.412;2023-08-06T00:07:59;4.35;;;2.53;;
27796;SDS011;15177;50.844;4.412;2023-08-06T00:10:25;6.07;;;2.55;;
27796;SDS011;15177;50.844;4.412;2023-08-06T00:12:52;7.50;;;2.85;;
27796;SDS011;15177;50.844;4.412;2023-08-06T00:15:18;4.35;;;2.47;;
27796;SDS011;15177;50.844;4.412;2023-08-06T00:17:44;6.20;;;2.90;;
27796;SDS011;15177;50.844;4.412;2023-08-06T00:20:09;7.72;;;3.15;;
27796;SDS011;15177;50.844;4.412;2023-08-06T00:22:36;6.53;;;2.90;;
27796;SDS011;15177;50.844;4.412;2023-08-06T00:25:03;5.15;;;3.45;;
27796;SDS011;15177;50.844;4.412;2023-08-06T00:27:29;6.05;;;3.30;;
27796;SDS011;15177;50.844;4.412;2023-08-06T00:29:55;7.80;;;4.03;;
27796;SDS011;15177;50.844;4.412;2023-08-06T00:32:21;6.15;;;4.18;;
27796;SDS011;15177;50.844;4.412;2023-08-06T00:34:47;9.10;;;4.55;;
27796;SDS011;15177;50.844;4.412;2023-08-06T00:37:15;7.50;;;4.30;;
27796;SDS011;15177;50.844;4.412;2023-08-06T00:39:41;11.90;;;5.20;;
27796;SDS011;15177;50.844;4.412;2023-08-06T00:42:08;11.98;;;5.35;;
27796;SDS011;15177;50.844;4.412;2023-08-06T00:44:34;10.07;;;5.78;;
27796;SDS011;15177;50.844;4.412;2023-08-06T00:47:00;17.52;;;5.25;;
27796;SDS011;15177;50.844;4.412;2023-08-06T00:49:27;8.55;;;5.18;;
27796;SDS011;15177;50.844;4.412;2023-08-06T00:51:53;12.55;;;6.43;;
27796;SDS011;15177;50.844;4.412;2023-08-06T00:54:19;8.20;;;6.00;;
27796;SDS011;15177;50.844;4.412;2023-08-06T00:56:44;11.98;;;5.97;;
27796;SDS011;15177;50.844;4.412;2023-08-06T00:59:11;14.02;;;6.32;;
27796;SDS011;15177;50.844;4.412;2023-08-06T01:01:38;12.52;;;6.43;;
27796;SDS011;15177;50.844;4.412;2023-08-06T01:04:03;17.42;;;6.45;;
27796;SDS011;15177;50.844;4.412;2023-08-06T01:06:36;12.48;;;5.63;;
27796;SDS011;15177;50.844;4.412;2023-08-06T01:09:20;11.60;;;6.63;;
27796;SDS011;15177;50.844;4.412;2023-08-06T01:14:20;15.65;;;7.20;;
27796;SDS011;15177;50.844;4.412;2023-08-06T01:16:53;14.55;;;6.75;;
27796;SDS011;15177;50.844;4.412;2023-08-06T01:19:20;23.88;;;9.52;;
27796;SDS011;15177;50.844;4.412;2023-08-06T01:21:46;15.98;;;8.65;;
27796;SDS011;15177;50.844;4.412;2023-08-06T01:24:12;12.23;;;7.68;;
27796;SDS011;15177;50.844;4.412;2023-08-06T01:27:21;14.77;;;8.50;;
27796;SDS011;15177;50.844;4.412;2023-08-06T01:29:44;16.40;;;8.55;;
27796;SDS011;15177;50.844;4.412;2023-08-06T01:32:14;17.65;;;8.55;;
27796;SDS011;15177;50.844;4.412;2023-08-06T01:34:41;20.23;;;8.25;;
27796;SDS011;15177;50.844;4.412;2023-08-06T01:37:09;14.93;;;7.55;;
27796;SDS011;15177;50.844;4.412;2023-08-06T01:39:36;11.70;;;7.00;;
27796;SDS011;15177;50.844;4.412;2023-08-06T01:42:02;19.20;;;7.35;;
27796;SDS011;15177;50.844;4.412;2023-08-06T01:44:27;16.42;;;8.40;;
27796;SDS011;15177;50.844;4.412;2023-08-06T01:46:53;16.38;;;7.72;;
27796;SDS011;15177;50.844;4.412;2023-08-06T01:49:19;16.20;;;7.40;;
27796;SDS011;15177;50.844;4.412;2023-08-06T01:51:45;18.52;;;7.85;;
27796;SDS011;15177;50.844;4.412;2023-08-06T01:54:10;15.48;;;6.90;;
27796;SDS011;15177;50.844;4.412;2023-08-06T01:56:36;8.77;;;6.03;;
27796;SDS011;15177;50.844;4.412;2023-08-06T01:59:02;10.40;;;6.22;;
27796;SDS011;15177;50.844;4.412;2023-08-06T02:01:27;11.27;;;6.05;;
27796;SDS011;15177;50.844;4.412;2023-08-06T02:03:54;6.82;;;4.70;;
27796;SDS011;15177;50.844;4.412;2023-08-06T02:06:19;9.85;;;5.55;;
27796;SDS011;15177;50.844;4.412;2023-08-06T02:08:45;11.10;;;5.15;;
27796;SDS011;15177;50.844;4.412;2023-08-06T02:11:10;13.93;;;6.20;;
27796;SDS011;15177;50.844;4.412;2023-08-06T02:13:36;12.88;;;5.30;;
27796;SDS011;15177;50.844;4.412;2023-08-06T02:16:02;8.95;;;4.35;;
27796;SDS011;15177;50.844;4.412;2023-08-06T02:18:28;11.82;;;4.85;;
27796;SDS011;15177;50.844;4.412;2023-08-06T02:20:59;7.25;;;4.53;;
27796;SDS011;15177;50.844;4.412;2023-08-06T02:23:25;14.00;;;3.97;;
27796;SDS011;15177;50.844;4.412;2023-08-06T02:28:23;8.10;;;3.60;;
27796;SDS011;15177;50.844;4.412;2023-08-06T02:30:50;16.98;;;3.70;;
27796;SDS011;15177;50.844;4.412;2023-08-06T02:33:16;12.77;;;3.65;;
27796;SDS011;15177;50.844;4.412;2023-08-06T02:35:42;10.02;;;3.55;;
27796;SDS011;15177;50.844;4.412;2023-08-06T02:38:07;17.23;;;3.50;;
27796;SDS011;15177;50.844;4.412;2023-08-06T02:40:33;11.50;;;3.30;;
27796;SDS011;15177;50.844;4.412;2023-08-06T02:42:59;9.55;;;3.03;;
27796;SDS011;15177;50.844;4.412;2023-08-06T02:45:24;9.00;;;2.90;;
27796;SDS011;15177;50.844;4.412;2023-08-06T02:47:50;9.52;;;3.58;;
27796;SDS011;15177;50.844;4.412;2023-08-06T02:50:16;9.57;;;3.13;;
27796;SDS011;15177;50.844;4.412;2023-08-06T02:52:42;8.23;;;3.00;;
27796;SDS011;15177;50.844;4.412;2023-08-06T02:55:08;10.73;;;3.33;;
27796;SDS011;15177;50.844;4.412;2023-08-06T02:57:35;13.57;;;4.13;;
27796;SDS011;15177;50.844;4.412;2023-08-06T03:00:01;10.80;;;3.47;;
27796;SDS011;15177;50.844;4.412;2023-08-06T03:02:27;10.18;;;3.95;;
27796;SDS011;15177;50.844;4.412;2023-08-06T03:04:53;10.70;;;3.70;;
27796;SDS011;15177;50.844;4.412;2023-08-06T03:07:18;15.85;;;4.93;;
27796;SDS011;15177;50.844;4.412;2023-08-06T03:09:44;8.20;;;4.05;;
27796;SDS011;15177;50.844;4.412;2023-08-06T03:12:10;11.30;;;4.03;;
27796;SDS011;15177;50.844;4.412;2023-08-06T03:14:35;17.63;;;5.80;;
27796;SDS011;15177;50.844;4.412;2023-08-06T03:17:01;12.50;;;4.75;;
27796;SDS011;15177;50.844;4.412;2023-08-06T03:19:27;13.73;;;5.20;;
27796;SDS011;15177;50.844;4.412;2023-08-06T03:21:53;14.25;;;5.43;;
27796;SDS011;15177;50.844;4.412;2023-08-06T03:24:19;13.73;;;6.95;;
27796;SDS011;15177;50.844;4.412;2023-08-06T03:26:46;21.92;;;9.13;;
27796;SDS011;15177;50.844;4.412;2023-08-06T03:29:12;25.05;;;11.80;;
27796;SDS011;15177;50.844;4.412;2023-08-06T03:31:37;25.23;;;11.88;;
27796;SDS011;15177;50.844;4.412;2023-08-06T03:34:03;25.98;;;12.60;;
27796;SDS011;15177;50.844;4.412;2023-08-06T03:36:29;27.75;;;14.30;;
27796;SDS011;15177;50.844;4.412;2023-08-06T03:38:54;34.10;;;16.15;;
27796;SDS011;15177;50.844;4.412;2023-08-06T03:41:20;31.08;;;15.93;;
27796;SDS011;15177;50.844;4.412;2023-08-06T03:43:46;25.35;;;13.80;;
27796;SDS011;15177;50.844;4.412;2023-08-06T03:46:12;22.17;;;12.80;;
27796;SDS011;15177;50.844;4.412;2023-08-06T03:48:37;25.17;;;13.52;;
27796;SDS011;15177;50.844;4.412;2023-08-06T03:51:03;21.90;;;12.25;;
27796;SDS011;15177;50.844;4.412;2023-08-06T03:53:29;19.27;;;10.80;;
27796;SDS011;15177;50.844;4.412;2023-08-06T03:55:54;19.67;;;9.02;;
27796;SDS011;15177;50.844;4.412;2023-08-06T03:58:24;15.63;;;8.32;;
27796;SDS011;15177;50.844;4.412;2023-08-06T04:00:58;12.75;;;6.90;;
27796;SDS011;15177;50.844;4.412;2023-08-06T04:03:25;15.48;;;7.45;;
27796;SDS011;15177;50.844;4.412;2023-08-06T04:05:51;12.20;;;7.45;;
27796;SDS011;15177;50.844;4.412;2023-08-06T04:08:16;8.98;;;5.60;;
27796;SDS011;15177;50.844;4.412;2023-08-06T04:10:42;8.80;;;4.70;;
27796;SDS011;15177;50.844;4.412;2023-08-06T04:13:08;7.90;;;3.53;;
27796;SDS011;15177;50.844;4.412;2023-08-06T04:15:34;3.97;;;1.73;;
27796;SDS011;15177;50.844;4.412;2023-08-06T04:18:00;3.08;;;1.52;;
27796;SDS011;15177;50.844;4.412;2023-08-06T04:20:25;2.42;;;1.70;;
27796;SDS011;15177;50.844;4.412;2023-08-06T04:22:53;1.80;;;1.38;;
27796;SDS011;15177;50.844;4.412;2023-08-06T04:25:19;1.73;;;1.00;;
27796;SDS011;15177;50.844;4.412;2023-08-06T04:27:49;3.47;;;1.20;;
27796;SDS011;15177;50.844;4.412;2023-08-06T04:30:15;3.00;;;1.20;;
27796;SDS011;15177;50.844;4.412;2023-08-06T04:32:40;1.83;;;1.52;;
27796;SDS011;15177;50.844;4.412;2023-08-06T04:35:06;2.80;;;1.63;;
27796;SDS011;15177;50.844;4.412;2023-08-06T04:37:32;6.88;;;2.33;;
27796;SDS011;15177;50.844;4.412;2023-08-06T04:39:58;3.88;;;2.40;;
27796;SDS011;15177;50.844;4.412;2023-08-06T04:42:23;5.07;;;2.30;;
27796;SDS011;15177;50.844;4.412;2023-08-06T04:44:49;5.90;;;2.70;;
27796;SDS011;15177;50.844;4.412;2023-08-06T04:47:15;3.95;;;2.50;;
27796;SDS011;15177;50.844;4.412;2023-08-06T04:49:41;5.53;;;3.10;;
27796;SDS011;15177;50.844;4.412;2023-08-06T04:52:07;4.90;;;2.80;;
27796;SDS011;15177;50.844;4.412;2023-08-06T04:54:33;6.57;;;3.20;;
27796;SDS011;15177;50.844;4.412;2023-08-06T04:56:59;5.68;;;3.20;;
27796;SDS011;15177;50.844;4.412;2023-08-06T04:59:24;5.65;;;3.88;;
27796;SDS011;15177;50.844;4.412;2023-08-06T05:01:50;5.18;;;3.40;;
27796;SDS011;15177;50.844;4.412;2023-08-06T05:04:16;6.43;;;3.17;;
27796;SDS011;15177;50.844;4.412;2023-08-06T05:06:41;5.07;;;3.60;;
27796;SDS011;15177;50.844;4.412;2023-08-06T05:09:07;6.57;;;4.32;;
27796;SDS011;15177;50.844;4.412;2023-08-06T05:11:33;9.88;;;3.53;;
27796;SDS011;15177;50.844;4.412;2023-08-06T05:13:58;10.00;;;4.38;;
27796;SDS011;15177;50.844;4.412;2023-08-06T05:16:24;8.25;;;3.85;;
27796;SDS011;15177;50.844;4.412;2023-08-06T05:18:50;8.27;;;3.47;;
27796;SDS011;15177;50.844;4.412;2023-08-06T05:21:15;10.07;;;3.90;;
27796;SDS011;15177;50.844;4.412;2023-08-06T05:23:42;8.38;;;4.20;;
27796;SDS011;15177;50.844;4.412;2023-08-06T05:26:08;9.45;;;4.32;;
27796;SDS011;15177;50.844;4.412;2023-08-06T05:28:35;11.38;;;5.20;;
27796;SDS011;15177;50.844;4.412;2023-08-06T05:31:04;17.25;;;4.30;;
27796;SDS011;15177;50.844;4.412;2023-08-06T05:33:31;13.43;;;5.03;;
27796;SDS011;15177;50.844;4.412;2023-08-06T05:35:57;11.77;;;4.82;;
27796;SDS011;15177;50.844;4.412;2023-08-06T05:38:23;13.15;;;4.80;;
27796;SDS011;15177;50.844;4.412;2023-08-06T05:40:49;13.48;;;4.65;;
27796;SDS011;15177;50.844;4.412;2023-08-06T05:43:15;11.98;;;4.90;;
27796;SDS011;15177;50.844;4.412;2023-08-06T05:45:44;14.23;;;5.82;;
27796;SDS011;15177;50.844;4.412;2023-08-06T05:48:11;14.90;;;4.70;;
27796;SDS011;15177;50.844;4.412;2023-08-06T05:50:37;10.68;;;5.30;;
27796;SDS011;15177;50.844;4.412;2023-08-06T05:53:02;13.35;;;4.32;;
27796;SDS011;15177;50.844;4.412;2023-08-06T05:55:28;11.43;;;4.57;;
27796;SDS011;15177;50.844;4.412;2023-08-06T05:57:54;9.93;;;4.50;;
27796;SDS011;15177;50.844;4.412;2023-08-06T06:00:21;9.20;;;4.40;;
27796;SDS011;15177;50.844;4.412;2023-08-06T06:02:47;13.23;;;4.35;;
27796;SDS011;15177;50.844;4.412;2023-08-06T06:05:13;8.48;;;3.78;;
27796;SDS011;15177;50.844;4.412;2023-08-06T06:07:38;10.68;;;4.15;;
27796;SDS011;15177;50.844;4.412;2023-08-06T06:10:04;13.25;;;4.13;;
27796;SDS011;15177;50.844;4.412;2023-08-06T06:12:30;13.35;;;3.75;;
27796;SDS011;15177;50.844;4.412;2023-08-06T06:14:56;16.48;;;5.05;;
27796;SDS011;15177;50.844;4.412;2023-08-06T06:17:22;18.17;;;5.13;;
27796;SDS011;15177;50.844;4.412;2023-08-06T06:19:47;11.10;;;4.25;;
27796;SDS011;15177;50.844;4.412;2023-08-06T06:22:13;11.63;;;4.35;;
27796;SDS011;15177;50.844;4.412;2023-08-06T06:24:39;12.18;;;4.85;;
27796;SDS011;15177;50.844;4.412;2023-08-06T06:27:05;11.10;;;4.82;;
27796;SDS011;15177;50.844;4.412;2023-08-06T06:29:31;11.10;;;4.70;;
27796;SDS011;15177;50.844;4.412;2023-08-06T06:31:56;14.13;;;4.95;;
27796;SDS011;15177;50.844;4.412;2023-08-06T06:34:22;17.63;;;4.85;;
27796;SDS011;15177;50.844;4.412;2023-08-06T06:36:48;12.80;;;5.38;;
27796;SDS011;15177;50.844;4.412;2023-08-06T06:39:13;17.45;;;4.65;;
27796;SDS011;15177;50.844;4.412;2023-08-06T06:41:39;16.30;;;5.50;;
27796;SDS011;15177;50.844;4.412;2023-08-06T06:44:05;16.73;;;4.68;;
27796;SDS011;15177;50.844;4.412;2023-08-06T06:46:31;13.27;;;5.18;;
27796;SDS011;15177;50.844;4.412;2023-08-06T06:48:57;16.58;;;4.97;;
27796;SDS011;15177;50.844;4.412;2023-08-06T06:51:22;10.68;;;4.25;;
27796;SDS011;15177;50.844;4.412;2023-08-06T06:53:48;11.57;;;4.55;;
27796;SDS011;15177;50.844;4.412;2023-08-06T06:56:13;13.43;;;5.35;;
27796;SDS011;15177;50.844;4.412;2023-08-06T06:58:39;13.35;;;4.53;;
27796;SDS011;15177;50.844;4.412;2023-08-06T07:01:06;9.98;;;3.70;;
27796;SDS011;15177;50.844;4.412;2023-08-06T07:03:32;16.20;;;4.40;;
27796;SDS011;15177;50.844;4.412;2023-08-06T07:05:58;21.88;;;5.45;;
27796;SDS011;15177;50.844;4.412;2023-08-06T07:08:24;11.32;;;3.88;;
27796;SDS011;15177;50.844;4.412;2023-08-06T07:10:50;13.38;;;3.42;;
27796;SDS011;15177;50.844;4.412;2023-08-06T07:13:24;10.98;;;3.17;;
27796;SDS011;15177;50.844;4.412;2023-08-06T07:15:49;9.57;;;3.65;;
27796;SDS011;15177;50.844;4.412;2023-08-06T07:18:15;14.02;;;3.50;;
27796;SDS011;15177;50.844;4.412;2023-08-06T07:20:41;11.20;;;3.10;;
27796;SDS011;15177;50.844;4.412;2023-08-06T07:23:06;12.07;;;2.45;;
27796;SDS011;15177;50.844;4.412;2023-08-06T07:25:32;7.40;;;2.40;;
27796;SDS011;15177;50.844;4.412;2023-08-06T07:27:58;9.57;;;2.58;;
27796;SDS011;15177;50.844;4.412;2023-08-06T07:30:23;13.23;;;2.28;;
27796;SDS011;15177;50.844;4.412;2023-08-06T07:32:49;9.75;;;2.10;;
27796;SDS011;15177;50.844;4.412;2023-08-06T07:35:15;6.57;;;2.00;;
27796;SDS011;15177;50.844;4.412;2023-08-06T07:37:41;7.70;;;1.65;;
27796;SDS011;15177;50.844;4.412;2023-08-06T07:40:06;4.95;;;1.60;;
27796;SDS011;15177;50.844;4.412;2023-08-06T07:42:32;18.58;;;2.75;;
27796;SDS011;15177;50.844;4.412;2023-08-06T07:44:58;10.40;;;2.35;;
27796;SDS011;15177;50.844;4.412;2023-08-06T07:47:24;12.05;;;2.08;;
27796;SDS011;15177;50.844;4.412;2023-08-06T07:49:50;15.23;;;2.22;;
27796;SDS011;15177;50.844;4.412;2023-08-06T07:52:16;10.18;;;2.25;;
27796;SDS011;15177;50.844;4.412;2023-08-06T07:54:42;7.53;;;1.60;;
27796;SDS011;15177;50.844;4.412;2023-08-06T07:57:07;13.80;;;2.30;;
27796;SDS011;15177;50.844;4.412;2023-08-06T07:59:33;10.77;;;2.50;;
27796;SDS011;15177;50.844;4.412;2023-08-06T08:01:59;8.30;;;1.67;;
27796;SDS011;15177;50.844;4.412;2023-08-06T08:04:25;6.97;;;2.22;;
27796;SDS011;15177;50.844;4.412;2023-08-06T08:06:51;11.57;;;2.38;;
27796;SDS011;15177;50.844;4.412;2023-08-06T08:09:16;10.32;;;3.00;;
27796;SDS011;15177;50.844;4.412;2023-08-06T08:11:43;17.08;;;2.20;;
27796;SDS011;15177;50.844;4.412;2023-08-06T08:14:08;13.02;;;2.50;;
27796;SDS011;15177;50.844;4.412;2023-08-06T08:16:34;5.78;;;1.63;;
27796;SDS011;15177;50.844;4.412;2023-08-06T08:19:00;8.88;;;1.75;;
27796;SDS011;15177;50.844;4.412;2023-08-06T08:21:26;8.43;;;1.85;;
27796;SDS011;15177;50.844;4.412;2023-08-06T08:23:51;11.90;;;2.38;;
27796;SDS011;15177;50.844;4.412;2023-08-06T08:26:17;12.23;;;2.13;;
27796;SDS011;15177;50.844;4.412;2023-08-06T08:28:43;17.02;;;2.28;;
27796;SDS011;15177;50.844;4.412;2023-08-06T08:31:09;7.88;;;1.95;;
27796;SDS011;15177;50.844;4.412;2023-08-06T08:33:38;8.77;;;2.00;;
27796;SDS011;15177;50.844;4.412;2023-08-06T08:36:03;11.50;;;2.45;;
27796;SDS011;15177;50.844;4.412;2023-08-06T08:38:29;9.60;;;1.77;;
27796;SDS011;15177;50.844;4.412;2023-08-06T08:40:55;17.83;;;2.55;;
27796;SDS011;15177;50.844;4.412;2023-08-06T08:43:22;14.27;;;2.88;;
27796;SDS011;15177;50.844;4.412;2023-08-06T08:45:52;9.95;;;2.30;;
27796;SDS011;15177;50.844;4.412;2023-08-06T08:48:24;10.20;;;3.42;;
27796;SDS011;15177;50.844;4.412;2023-08-06T08:50:51;9.45;;;2.45;;
27796;SDS011;15177;50.844;4.412;2023-08-06T20:51:45;10.68;;;3.38;;
27796;SDS011;15177;50.844;4.412;2023-08-06T20:54:10;14.82;;;3.78;;
27796;SDS011;15177;50.844;4.412;2023-08-06T20:56:36;11.63;;;3.17;;
27796;SDS011;15177;50.844;4.412;2023-08-06T20:59:02;11.43;;;3.05;;
27796;SDS011;15177;50.844;4.412;2023-08-06T21:01:27;12.65;;;3.03;;
27796;SDS011;15177;50.844;4.412;2023-08-06T21:03:53;15.40;;;4.13;;
27796;SDS011;15177;50.844;4.412;2023-08-06T21:06:20;17.77;;;3.67;;
27796;SDS011;15177;50.844;4.412;2023-08-06T21:08:46;10.25;;;4.70;;
27796;SDS011;15177;50.844;4.412;2023-08-06T21:11:11;22.35;;;4.15;;
27796;SDS011;15177;50.844;4.412;2023-08-06T21:13:40;15.70;;;3.42;;
27796;SDS011;15177;50.844;4.412;2023-08-06T21:16:08;17.95;;;4.18;;
27796;SDS011;15177;50.844;4.412;2023-08-06T21:18:34;14.80;;;3.60;;
27796;SDS011;15177;50.844;4.412;2023-08-06T21:21:03;14.50;;;3.30;;
27796;SDS011;15177;50.844;4.412;2023-08-06T21:23:32;17.83;;;3.30;;
27796;SDS011;15177;50.844;4.412;2023-08-06T21:25:59;14.40;;;3.97;;
27796;SDS011;15177;50.844;4.412;2023-08-06T21:28:26;19.85;;;3.90;;
27796;SDS011;15177;50.844;4.412;2023-08-06T21:30:57;18.48;;;3.83;;
27796;SDS011;15177;50.844;4.412;2023-08-06T21:33:27;16.42;;;3.30;;
27796;SDS011;15177;50.844;4.412;2023-08-06T21:35:55;13.30;;;3.58;;
27796;SDS011;15177;50.844;4.412;2023-08-06T21:38:23;13.23;;;3.55;;
27796;SDS011;15177;50.844;4.412;2023-08-06T21:40:49;12.73;;;3.00;;
27796;SDS011;15177;50.844;4.412;2023-08-06T21:43:17;18.88;;;4.95;;
27796;SDS011;15177;50.844;4.412;2023-08-06T21:45:42;15.15;;;3.72;;
27796;SDS011;15177;50.844;4.412;2023-08-06T21:48:08;19.00;;;3.45;;
27796;SDS011;15177;50.844;4.412;2023-08-06T21:50:34;15.48;;;3.33;;
27796;SDS011;15177;50.844;4.412;2023-08-06T21:53:00;16.40;;;3.58;;
27796;SDS011;15177;50.844;4.412;2023-08-06T21:55:29;14.30;;;3.95;;
27796;SDS011;15177;50.844;4.412;2023-08-06T21:57:56;14.80;;;3.70;;
27796;SDS011;15177;50.844;4.412;2023-08-06T22:00:21;14.18;;;3.42;;
27796;SDS011;15177;50.844;4.412;2023-08-06T22:02:47;13.38;;;4.03;;
27796;SDS011;15177;50.844;4.412;2023-08-06T22:05:12;14.90;;;3.83;;
27796;SDS011;15177;50.844;4.412;2023-08-06T22:07:38;16.48;;;3.78;;
27796;SDS011;15177;50.844;4.412;2023-08-06T22:10:04;15.30;;;2.90;;
27796;SDS011;15177;50.844;4.412;2023-08-06T22:12:30;13.70;;;3.75;;
27796;SDS011;15177;50.844;4.412;2023-08-06T22:14:56;14.90;;;3.95;;
27796;SDS011;15177;50.844;4.412;2023-08-06T22:17:22;13.85;;;3.40;;
27796;SDS011;15177;50.844;4.412;2023-08-06T22:19:47;15.95;;;3.58;;
27796;SDS011;15177;50.844;4.412;2023-08-06T22:22:14;14.73;;;3.45;;
27796;SDS011;15177;50.844;4.412;2023-08-06T22:24:42;14.88;;;3.78;;
27796;SDS011;15177;50.844;4.412;2023-08-06T22:27:08;12.85;;;4.05;;
27796;SDS011;15177;50.844;4.412;2023-08-06T22:29:33;16.17;;;3.53;;
27796;SDS011;15177;50.844;4.412;2023-08-06T22:31:59;12.57;;;4.30;;
27796;SDS011;15177;50.844;4.412;2023-08-06T22:34:25;6.90;;;3.05;;
27796;SDS011;15177;50.844;4.412;2023-08-06T22:36:51;13.90;;;3.47;;
27796;SDS011;15177;50.844;4.412;2023-08-06T22:39:16;14.20;;;3.53;;
27796;SDS011;15177;50.844;4.412;2023-08-06T22:41:42;9.93;;;2.95;;
27796;SDS011;15177;50.844;4.412;2023-08-06T22:44:08;20.30;;;4.03;;
27796;SDS011;15177;50.844;4.412;2023-08-06T22:46:34;13.60;;;3.45;;
27796;SDS011;15177;50.844;4.412;2023-08-06T22:48:59;13.80;;;3.60;;
27796;SDS011;15177;50.844;4.412;2023-08-06T22:51:26;15.38;;;3.17;;
27796;SDS011;15177;50.844;4.412;2023-08-06T22:53:52;14.90;;;4.03;;
27796;SDS011;15177;50.844;4.412;2023-08-06T22:56:18;9.73;;;2.97;;
27796;SDS011;15177;50.844;4.412;2023-08-06T22:58:44;14.60;;;3.15;;
27796;SDS011;15177;50.844;4.412;2023-08-06T23:01:12;14.98;;;3.25;;
27796;SDS011;15177;50.844;4.412;2023-08-06T23:03:38;12.73;;;3.42;;
27796;SDS011;15177;50.844;4.412;2023-08-06T23:06:04;13.40;;;3.65;;
27796;SDS011;15177;50.844;4.412;2023-08-06T23:08:29;9.23;;;2.65;;
27796;SDS011;15177;50.844;4.412;2023-08-06T23:10:55;15.48;;;3.35;;
27796;SDS011;15177;50.844;4.412;2023-08-06T23:13:21;16.58;;;3.50;;
27796;SDS011;15177;50.844;4.412;2023-08-06T23:15:47;13.13;;;3.30;;
27796;SDS011;15177;50.844;4.412;2023-08-06T23:18:13;16.27;;;3.55;;
27796;SDS011;15177;50.844;4.412;2023-08-06T23:20:38;15.13;;;3.60;;
27796;SDS011;15177;50.844;4.412;2023-08-06T23:23:04;17.05;;;3.95;;
27796;SDS011;15177;50.844;4.412;2023-08-06T23:25:30;16.75;;;3.60;;
27796;SDS011;15177;50.844;4.412;2023-08-06T23:27:59;10.50;;;3.60;;
27796;SDS011;15177;50.844;4.412;2023-08-06T23:30:25;16.58;;;3.45;;
27796;SDS011;15177;50.844;4.412;2023-08-06T23:32:51;8.48;;;3.17;;
27796;SDS011;15177;50.844;4.412;2023-08-06T23:35:17;11.95;;;3.42;;
27796;SDS011;15177;50.844;4.412;2023-08-06T23:37:44;15.88;;;3.63;;
27796;SDS011;15177;50.844;4.412;2023-08-06T23:40:09;14.15;;;3.78;;
27796;SDS011;15177;50.844;4.412;2023-08-06T23:42:35;10.27;;;3.47;;
27796;SDS011;15177;50.844;4.412;2023-08-06T23:45:01;10.60;;;3.40;;
27796;SDS011;15177;50.844;4.412;2023-08-06T23:47:27;16.20;;;3.42;;
27796;SDS011;15177;50.844;4.412;2023-08-06T23:49:53;16.95;;;3.83;;
27796;SDS011;15177;50.844;4.412;2023-08-06T23:52:19;18.92;;;3.85;;
27796;SDS011;15177;50.844;4.412;2023-08-06T23:54:44;14.20;;;3.60;;
27796;SDS011;15177;50.844;4.412;2023-08-06T23:57:10;9.20;;;3.67;;
27796;SDS011;15177;50.844;4.412;2023-08-06T23:59:36;10.50;;;3.50;;
